Archival Weather

Joint Base Andrews

Camp Springs, Maryland (KADW)

Report from: Tuesday, February 27, 2024 2:55 AM EST
Current time: Wednesday, May 29, 2024 7:19 PM EDT

Current weather – Weather history – Daily summaries
Weather forecast

Temperature7.4°C (45.3°F)
Wind chill6.1°C (43.0°F)
Dew point3.8°C (38.8°F)
Winds 4 kts (2.1 m/s, 4.6 mph) South-Southeast (160°)
Visibility10 mi. (16.1 km)
Clouds Sky clear
Altimeter29.93 in.Hg (1014 mB)
Relative humidity78 %
Density altitude-828 ft. (-252 m)
Sea-level pressure101.4 kPa (1014 mB, 29.95 in.Hg)
Remarks Fully automated report
System requires maintenance
Automated weather observing station with precipitation discriminator
Flight conditions Visual Meteorological Conditions
Raw dataKADW 270755Z AUTO 16004KT 10SM CLR 07/04 A2993 RMK AO2 SLP142 T00740038 $
An error has occurred. This application may no longer respond until reloaded. Reload 🗙